»·PEaware :: N2MZ KSNA-KCRQ

N2MZ :: KSNA-KCRQ

FLIGHT INFORMATION

Flight Status: Arrived
Operator: Privately registered:
United States
More flights under this callsign
Pilot: Mike Z. (25595)
Aircraft: CESSNA 172 SKYHAWK
(C172)
More flights by this aircraft type
Origin: KSNA John Wayne-Orange Co
United States
Destination: KCRQ McClellan-Palomar
United States
More flights between these airports :: More routes between these airports
Route: +V23 OCN
File this flight plan on PilotEdge
Remarks: TEC CSTP30
Altitude:
(Current/Filed)
5,000ft
Speed:
(Current/Filed)
115kts
Departed: 18-Oct-19 03:02 PM
Arrived: 18-Oct-19 03:42 PM
Distance/Time
Traveled:
44nm/0:40
Distance/Time
To Go:
Arrived

Flight Plot

Page will automatically refresh every two minutes.


Map Options




Map Legend


Flown Route
Filed Route
Departure Airport
Arrival Airport
Navaid (VOR, NDB)
Fix

Horizontal Profiles

Position Reports

Time Latitude Longitude Heading Altitude Ground
Speed
18-Oct-19 14:49 33.671168 -117.868042 209 60ft 0kts
18-Oct-19 14:50 33.671168 -117.868042 209 60ft 0kts
18-Oct-19 14:51 33.671168 -117.868042 209 60ft 0kts
18-Oct-19 14:52 33.671168 -117.868042 209 60ft 0kts
18-Oct-19 14:53 33.671168 -117.868042 209 60ft 0kts
18-Oct-19 14:54 33.671771 -117.868344 29 60ft 17kts
18-Oct-19 14:55 33.676104 -117.865826 25 60ft 25kts
18-Oct-19 14:56 33.679975 -117.863651 253 60ft 0kts
18-Oct-19 14:57 33.679975 -117.863651 253 60ft 0kts
18-Oct-19 14:59 33.679975 -117.863652 253 60ft 0kts
18-Oct-19 15:00 33.679975 -117.863651 253 60ft 0kts
18-Oct-19 15:01 33.680131 -117.864022 285 60ft 10kts
18-Oct-19 15:02 33.664907 -117.875071 213 520ft 77kts
18-Oct-19 15:03 33.644056 -117.880094 186 1215ft 82kts
18-Oct-19 15:04 33.625967 -117.870250 122 1906ft 80kts
18-Oct-19 15:05 33.607137 -117.862675 182 2554ft 76kts
18-Oct-19 15:06 33.585907 -117.850313 133 3007ft 96kts
18-Oct-19 15:07 33.570241 -117.826891 126 3658ft 87kts
18-Oct-19 15:08 33.554968 -117.805383 131 4250ft 81kts
18-Oct-19 15:09 33.541658 -117.784441 128 4801ft 79kts
18-Oct-19 15:10 33.526291 -117.762018 126 5056ft 107kts
18-Oct-19 15:11 33.507097 -117.731136 137 5022ft 120kts
18-Oct-19 15:12 33.481976 -117.704688 142 5021ft 119kts
18-Oct-19 15:13 33.456210 -117.678989 129 5008ft 114kts
18-Oct-19 15:14 33.435459 -117.648878 129 5009ft 119kts
18-Oct-19 15:15 33.414356 -117.618061 128 5009ft 119kts
18-Oct-19 15:16 33.393289 -117.587114 128 5009ft 120kts
18-Oct-19 15:17 33.372981 -117.557107 128 5009ft 114kts
18-Oct-19 15:17 33.354330 -117.535156 143 5009ft 113kts
18-Oct-19 15:19 33.324954 -117.508766 142 5009ft 113kts
18-Oct-19 15:19 33.304182 -117.489367 141 5009ft 113kts
18-Oct-19 15:20 33.281660 -117.462943 132 5009ft 113kts
18-Oct-19 15:21 33.260060 -117.436125 139 5039ft 113kts
18-Oct-19 15:23 33.240641 -117.400223 95 4803ft 127kts
18-Oct-19 15:23 33.236358 -117.364648 100 4550ft 124kts
18-Oct-19 15:24 33.230197 -117.326542 100 4555ft 113kts
18-Oct-19 15:25 33.224836 -117.289729 99 4556ft 112kts
18-Oct-19 15:26 33.219736 -117.252982 95 4555ft 112kts
18-Oct-19 15:27 33.218686 -117.215926 93 4556ft 112kts
18-Oct-19 15:28 33.215849 -117.178872 98 4556ft 112kts
18-Oct-19 15:29 33.211236 -117.142148 98 4556ft 111kts
18-Oct-19 15:30 33.205869 -117.105791 97 4556ft 111kts
18-Oct-19 15:31 33.198431 -117.070996 143 4420ft 113kts
18-Oct-19 15:32 33.165790 -117.076140 197 3476ft 127kts
18-Oct-19 15:33 33.154467 -117.108413 274 2882ft 101kts
18-Oct-19 15:34 33.150496 -117.137498 246 2519ft 79kts
18-Oct-19 15:35 33.146983 -117.160632 246 2298ft 68kts
18-Oct-19 15:36 33.143756 -117.185870 241 2119ft 85kts
18-Oct-19 15:37 33.139494 -117.211772 254 1373ft 75kts
18-Oct-19 15:38 33.135523 -117.233816 257 1115ft 74kts
18-Oct-19 15:39 33.132055 -117.256512 259 664ft 66kts
18-Oct-19 15:40 33.128678 -117.277340 260 335ft 45kts
18-Oct-19 15:41 33.127818 -117.277966 96 335ft 3kts
18-Oct-19 15:42 33.127761 -117.273699 121 335ft 4kts
18-Oct-19 15:43 33.127790 -117.273614 348 335ft 0kts

Navigation Log

Ident Type
Flight plan parsing failed, navigation log unavailable